Time;durP1;ratioP1;P1;durP2;ratioP2;P2;SDS_P1;SDS_P2;PMS_P1;PMS_P2;Temp;Humidity;BMP_temperature;BMP_pressure;BME280_temperature;BME280_humidity;BME280_pressure;Samples;Min_cycle;Max_cycle;Signal;HPM_P1;HPM_P2
2021/12/20 00:00:26;;;;;;;4.03;3.67;;;;;;;3.12;83.67;62322.66;5069069;28;20224;-78
2021/12/20 00:02:55;;;;;;;3.58;3.20;;;;;;;3.10;84.76;62323.13;5069773;28;20232;-79
2021/12/20 00:05:23;;;;;;;2.53;2.33;;;;;;;3.08;85.20;62316.03;5064098;28;20205;-79
2021/12/20 00:07:50;;;;;;;3.70;3.40;;;;;;;3.11;85.26;62317.13;5058075;28;20251;-78
2021/12/20 00:10:18;;;;;;;4.05;3.22;;;;;;;3.01;86.93;62314.38;5068104;28;20206;-78
2021/12/20 00:12:46;;;;;;;4.72;3.13;;;;;;;3.08;86.67;62316.03;5064193;28;20242;-78
2021/12/20 00:15:13;;;;;;;4.35;3.47;;;;;;;2.98;87.63;62305.75;5065586;28;20268;-79
2021/12/20 00:17:40;;;;;;;3.17;2.85;;;;;;;2.97;87.59;62307.75;5063707;28;20293;-77
2021/12/20 00:20:08;;;;;;;2.33;2.22;;;;;;;2.88;88.09;62295.47;5067315;28;20212;-79
2021/12/20 00:22:35;;;;;;;3.28;3.00;;;;;;;2.88;88.55;62295.47;5064459;28;20236;-78
2021/12/20 00:25:02;;;;;;;4.10;3.17;;;;;;;2.88;88.95;62295.97;5064579;28;20193;-78
2021/12/20 00:27:29;;;;;;;2.30;2.20;;;;;;;2.86;88.26;62293.94;5064612;28;20198;-78
2021/12/20 00:29:57;;;;;;;4.15;3.20;;;;;;;2.89;88.52;62296.50;5065994;28;20307;-78
2021/12/20 00:32:24;;;;;;;2.85;2.58;;;;;;;2.82;88.49;62286.78;5067749;28;20208;-78
2021/12/20 00:34:51;;;;;;;3.30;3.00;;;;;;;2.81;88.44;62288.81;5066374;28;20202;-78
2021/12/20 00:42:46;;;;;;;2.40;2.30;;;;;;;2.81;88.19;62285.78;5055387;28;20268;-78
2021/12/20 00:45:15;;;;;;;4.78;2.50;;;;;;;2.78;88.66;62285.72;5064016;28;20209;-78
2021/12/20 00:47:42;;;;;;;2.63;2.42;;;;;;;2.73;88.39;62280.06;5062015;28;20217;-78
2021/12/20 00:50:12;;;;;;;2.95;2.65;;;;;;;2.74;88.59;62281.63;5054216;28;20201;-79
2021/12/20 00:52:39;;;;;;;2.88;2.67;;;;;;;2.79;88.71;62286.22;5065127;28;20263;-77
2021/12/20 00:55:07;;;;;;;2.50;2.40;;;;;;;2.70;88.62;62274.47;5066428;28;20274;-77
2021/12/20 00:57:33;;;;;;;2.47;2.28;;;;;;;2.76;88.72;62278.63;5060936;28;20224;-79
2021/12/20 01:00:01;;;;;;;3.65;2.88;;;;;;;2.72;89.13;62281.56;5064989;28;20251;-79
2021/12/20 01:02:29;;;;;;;2.30;2.20;;;;;;;2.71;88.22;62273.50;5057810;28;20458;-78
2021/12/20 01:04:57;;;;;;;3.13;2.83;;;;;;;2.63;87.49;62269.78;5065658;28;20198;-79
2021/12/20 01:07:25;;;;;;;2.13;2.00;;;;;;;2.70;85.87;62280.00;5063325;28;20235;-78
2021/12/20 01:09:57;;;;;;;2.10;2.00;;;;;;;2.77;85.11;62279.66;5060939;28;20242;-77
2021/12/20 01:12:28;;;;;;;2.75;2.53;;;;;;;2.76;84.71;62286.16;5065209;28;20215;-78
2021/12/20 01:14:59;;;;;;;2.65;2.30;;;;;;;2.78;84.85;62283.19;5055715;28;20201;-78
2021/12/20 01:17:26;;;;;;;2.67;2.47;;;;;;;2.78;84.79;62288.22;5066385;28;20201;-77
2021/12/20 01:19:54;;;;;;;2.08;1.98;;;;;;;2.85;84.15;62292.91;5055447;28;20498;-77
2021/12/20 01:22:21;;;;;;;2.08;1.98;;;;;;;2.85;83.61;62289.88;5065234;28;20278;-78
2021/12/20 01:24:48;;;;;;;3.22;2.80;;;;;;;2.74;84.22;62281.63;5064330;28;20200;-78
2021/12/20 01:27:15;;;;;;;2.83;2.63;;;;;;;2.78;84.42;62285.72;5063274;28;20202;-78
2021/12/20 01:29:42;;;;;;;2.28;2.17;;;;;;;2.83;83.61;62290.34;5062603;28;20213;-77
2021/12/20 01:32:09;;;;;;;5.15;2.22;;;;;;;2.83;83.50;62287.84;5065642;28;20667;-77
2021/12/20 01:34:35;;;;;;;2.25;2.13;;;;;;;2.84;83.61;62291.88;5063587;28;20217;-76
2021/12/20 01:37:04;;;;;;;3.63;2.17;;;;;;;2.76;83.37;62286.16;5056234;28;20201;-78
2021/12/20 01:39:31;;;;;;;3.83;2.65;;;;;;;2.73;83.61;62275.56;5062224;28;20225;-76
2021/12/20 01:41:59;;;;;;;3.33;3.05;;;;;;;2.76;83.68;62285.66;5054014;28;20233;-76
2021/12/20 01:44:26;;;;;;;2.72;2.50;;;;;;;2.75;83.99;62282.63;5065128;28;20426;-77
2021/12/20 01:46:53;;;;;;;4.93;2.63;;;;;;;2.76;84.23;62281.13;5065233;28;20205;-78
2021/12/20 01:49:20;;;;;;;2.92;2.75;;;;;;;2.74;84.01;62276.59;5060176;28;20217;-77
2021/12/20 01:52:01;;;;;;;3.35;3.15;;;;;;;2.78;83.45;62285.72;5063109;28;20243;-77
2021/12/20 01:54:29;;;;;;;2.58;2.38;;;;;;;2.79;83.57;62283.72;5065036;28;20225;-78
2021/12/20 01:56:56;;;;;;;4.60;2.50;;;;;;;2.82;83.58;62291.81;5065097;28;20220;-76
2021/12/20 01:59:23;;;;;;;2.80;2.58;;;;;;;2.79;83.65;62286.75;5061357;28;20249;-78
2021/12/20 02:01:52;;;;;;;3.33;2.67;;;;;;;2.84;83.94;62296.41;5055445;28;20229;-77
2021/12/20 02:04:20;;;;;;;2.90;2.63;;;;;;;2.71;84.64;62280.53;5044925;28;20230;-78
2021/12/20 02:06:48;;;;;;;3.03;2.67;;;;;;;2.81;85.51;62288.28;5056683;28;20217;-78
2021/12/20 02:09:17;;;;;;;5.00;3.25;;;;;;;2.82;85.67;62286.78;5048842;28;20503;-78
2021/12/20 02:11:49;;;;;;;3.60;3.30;;;;;;;2.80;85.97;62287.25;5059763;28;20216;-78
2021/12/20 02:14:17;;;;;;;3.17;2.92;;;;;;;2.74;85.88;62278.59;5062000;28;20217;-77
2021/12/20 02:16:45;;;;;;;2.60;2.50;;;;;;;2.72;86.23;62284.59;5064214;28;20205;-78
2021/12/20 02:19:14;;;;;;;3.45;3.25;;;;;;;2.73;85.85;62280.06;5063456;28;20222;-78
2021/12/20 02:21:44;;;;;;;2.60;2.40;;;;;;;2.71;86.14;62278.53;5047439;28;20257;-77
2021/12/20 02:24:11;;;;;;;3.70;3.20;;;;;;;2.70;86.88;62276.97;5064259;28;20281;-77
2021/12/20 02:26:38;;;;;;;4.30;4.00;;;;;;;2.73;87.73;62277.53;5065220;28;20197;-77
2021/12/20 02:29:08;;;;;;;3.20;3.03;;;;;;;2.64;88.21;62273.84;5064587;28;20229;-77
2021/12/20 02:37:27;;;;;;;3.53;3.15;;;;;;;2.63;89.59;62267.28;5062862;28;20272;-77
2021/12/20 02:39:56;;;;;;;2.88;2.67;;;;;;;2.53;90.64;62257.00;5066270;28;20407;-77
2021/12/20 02:42:27;;;;;;;3.38;3.03;;;;;;;2.56;89.92;62263.13;5062071;28;20229;-77
2021/12/20 02:45:07;;;;;;;3.90;3.63;;;;;;;2.62;89.59;62263.75;5059559;28;20201;-77
2021/12/20 02:47:37;;;;;;;3.75;3.25;;;;;;;2.66;90.17;62272.88;5056712;28;20212;-77
2021/12/20 02:50:05;;;;;;;3.15;2.95;;;;;;;2.60;90.98;62267.22;5062979;28;20201;-78
2021/12/20 02:52:33;;;;;;;3.10;2.90;;;;;;;2.63;90.04;62275.34;5062180;28;20202;-77
2021/12/20 02:55:00;;;;;;;3.50;3.20;;;;;;;2.62;89.85;62269.28;5059892;28;20470;-79
2021/12/20 02:57:27;;;;;;;4.30;3.90;;;;;;;2.60;90.06;62264.72;5062988;28;20255;-77
2021/12/20 02:59:54;;;;;;;3.30;3.00;;;;;;;2.58;91.21;62264.66;5063955;28;20244;-77
2021/12/20 03:02:22;;;;;;;3.67;3.35;;;;;;;2.53;91.79;62260.03;5064515;28;20278;-77
2021/12/20 03:04:49;;;;;;;6.13;3.42;;;;;;;2.53;92.16;62257.53;5061626;28;20189;-76
2021/12/20 03:07:22;;;;;;;3.08;2.83;;;;;;;2.56;92.45;62265.09;5066950;28;20193;-77
2021/12/20 03:09:55;;;;;;;3.47;3.28;;;;;;;2.57;91.62;62258.59;5064778;28;20201;-78
2021/12/20 03:12:25;;;;;;;3.55;3.17;;;;;;;2.53;91.64;62262.53;5060428;28;20260;-77
2021/12/20 03:14:56;;;;;;;3.60;3.30;;;;;;;2.59;90.58;62263.69;5063276;28;20208;-77
2021/12/20 03:17:23;;;;;;;3.70;3.40;;;;;;;2.56;91.70;62260.59;5063778;28;20225;-78
2021/12/20 03:19:50;;;;;;;3.33;3.03;;;;;;;2.64;91.75;62268.81;5057036;28;20197;-77
2021/12/20 03:22:17;;;;;;;3.58;3.28;;;;;;;2.61;92.09;62265.72;5055582;28;20236;-77
2021/12/20 03:24:44;;;;;;;2.80;2.60;;;;;;;2.59;91.83;62265.69;5057927;28;20203;-78
2021/12/20 03:27:12;;;;;;;3.30;2.90;;;;;;;2.60;92.00;62272.25;5067840;28;20506;-76
2021/12/20 03:29:39;;;;;;;3.47;3.10;;;;;;;2.58;91.88;62267.69;5066113;28;20233;-77
2021/12/20 03:32:07;;;;;;;3.30;3.10;;;;;;;2.62;90.73;62266.25;5059239;28;20198;-77
2021/12/20 03:34:34;;;;;;;5.90;3.95;;;;;;;2.67;90.88;62274.41;5059343;28;20568;-78
2021/12/20 03:37:01;;;;;;;3.15;2.85;;;;;;;2.71;90.83;62276.00;5067275;28;20205;-77
2021/12/20 03:39:27;;;;;;;2.75;2.50;;;;;;;2.70;90.80;62276.97;5066811;28;20221;-77
2021/12/20 03:41:54;;;;;;;3.58;3.25;;;;;;;2.59;91.52;62268.69;5068019;28;20235;-78
2021/12/20 03:44:23;;;;;;;2.92;2.72;;;;;;;2.68;90.92;62272.41;5062707;28;20233;-77
2021/12/20 03:46:49;;;;;;;3.55;3.35;;;;;;;2.68;89.72;62270.41;5063879;28;20201;-76
2021/12/20 03:49:16;;;;;;;4.22;3.63;;;;;;;2.74;89.28;62283.59;5064700;28;20572;-77
2021/12/20 03:51:43;;;;;;;2.88;2.67;;;;;;;2.73;89.08;62280.56;5066487;28;20205;-78
2021/12/20 03:54:10;;;;;;;3.42;3.13;;;;;;;2.75;88.73;62279.59;5068095;28;20225;-78
2021/12/20 03:56:37;;;;;;;2.75;2.50;;;;;;;2.74;88.38;62283.59;5067690;28;20251;-76
2021/12/20 03:59:04;;;;;;;3.42;3.13;;;;;;;2.75;88.43;62284.63;5066615;28;20542;-78
2021/12/20 04:01:32;;;;;;;3.38;2.92;;;;;;;2.68;88.73;62272.41;5061317;28;20197;-78
2021/12/20 04:04:00;;;;;;;2.67;2.47;;;;;;;2.77;88.63;62281.66;5066455;28;20241;-78
2021/12/20 04:06:27;;;;;;;3.17;2.97;;;;;;;2.86;89.18;62290.91;5063034;28;20243;-79
2021/12/20 04:08:54;;;;;;;2.58;2.38;;;;;;;2.79;89.77;62284.25;5066709;28;20239;-77
2021/12/20 04:11:21;;;;;;;3.10;2.90;;;;;;;2.65;92.01;62272.38;5057060;28;20198;-78
2021/12/20 04:13:48;;;;;;;3.70;3.40;;;;;;;2.67;92.74;62271.38;5066785;28;20228;-78
2021/12/20 04:16:15;;;;;;;3.60;3.30;;;;;;;2.57;94.81;62263.63;5058463;28;20224;-78
2021/12/20 04:18:43;;;;;;;3.95;3.30;;;;;;;2.54;96.34;62260.56;5066610;28;20405;-79
2021/12/20 04:21:11;;;;;;;4.10;3.60;;;;;;;2.52;97.89;62261.00;5064996;28;20193;-76
2021/12/20 04:23:38;;;;;;;5.68;4.57;;;;;;;2.41;98.63;62245.19;5057196;28;20225;-77
2021/12/20 04:26:05;;;;;;;4.63;3.53;;;;;;;2.43;98.55;62247.25;5063341;28;20201;-78
2021/12/20 04:28:32;;;;;;;6.15;3.38;;;;;;;2.41;97.49;62244.69;5066334;28;20228;-77
2021/12/20 04:30:59;;;;;;;3.35;2.97;;;;;;;2.45;96.04;62248.78;5065425;28;20255;-77
2021/12/20 04:33:26;;;;;;;3.67;2.80;;;;;;;2.47;96.44;62251.34;5051741;28;20225;-78
2021/12/20 04:35:54;;;;;;;3.60;3.30;;;;;;;2.47;96.90;62253.88;5060330;28;20208;-79
2021/12/20 04:38:22;;;;;;;3.83;3.45;;;;;;;2.44;95.53;62253.28;5066919;28;20229;-77
2021/12/20 04:40:49;;;;;;;4.57;4.10;;;;;;;2.48;93.56;62254.91;5056273;28;20257;-78
2021/12/20 04:43:16;;;;;;;3.35;3.10;;;;;;;2.50;93.36;62253.94;5062440;28;20291;-78
2021/12/20 04:45:43;;;;;;;2.97;2.78;;;;;;;2.61;91.22;62268.25;5065800;28;20220;-79
2021/12/20 04:48:10;;;;;;;2.97;2.78;;;;;;;2.60;90.47;62267.22;5057274;28;20272;-76
2021/12/20 04:50:38;;;;;;;2.80;2.58;;;;;;;2.72;90.48;62279.03;5060390;28;20248;-78
2021/12/20 04:53:07;;;;;;;2.60;2.40;;;;;;;2.64;91.24;62270.81;5064660;28;20283;-78
2021/12/20 04:55:34;;;;;;;5.80;3.08;;;;;;;2.56;94.10;62260.59;5065682;28;20223;-78
2021/12/20 04:58:06;;;;;;;4.25;2.70;;;;;;;2.44;96.05;62248.28;5064180;28;20241;-77
2021/12/20 05:00:35;;;;;;;2.78;2.58;;;;;;;2.22;99.64;62228.19;5054391;28;20519;-78
2021/12/20 05:03:02;;;;;;;3.38;3.08;;;;;;;2.28;99.65;62232.34;5065995;28;20263;-78
2021/12/20 05:05:29;;;;;;;3.50;2.75;;;;;;;2.27;99.59;62228.31;5065221;28;20201;-79
2021/12/20 05:07:57;;;;;;;3.83;3.50;;;;;;;2.35;98.18;62242.06;5062691;28;20276;-77
2021/12/20 05:10:30;;;;;;;2.92;2.72;;;;;;;2.30;98.21;62241.94;5061514;28;20235;-79
2021/12/20 05:12:59;;;;;;;3.40;3.15;;;;;;;2.34;99.06;62243.03;5066957;28;20292;-78
2021/12/20 05:15:27;;;;;;;2.70;2.50;;;;;;;2.43;98.01;62252.28;5065578;28;20249;-78
2021/12/20 05:17:55;;;;;;;3.22;2.83;;;;;;;2.42;96.90;62248.72;5064198;28;20225;-78
2021/12/20 05:20:22;;;;;;;2.95;2.72;;;;;;;2.45;96.83;62248.78;5061195;28;20201;-78
2021/12/20 05:22:49;;;;;;;3.40;3.20;;;;;;;2.40;96.94;62243.66;5067739;28;20240;-78
2021/12/20 05:25:16;;;;;;;3.97;3.20;;;;;;;2.44;96.54;62253.28;5064342;28;20205;-77
2021/12/20 05:27:45;;;;;;;2.60;2.40;;;;;;;2.42;96.92;62248.72;5059471;28;20237;-77
2021/12/20 05:30:13;;;;;;;2.25;2.15;;;;;;;2.38;97.40;62246.63;5055412;28;20205;-78
2021/12/20 05:32:40;;;;;;;2.78;2.58;;;;;;;2.33;98.74;62236.97;5064804;28;20584;-78
2021/12/20 05:35:09;;;;;;;2.47;2.08;;;;;;;2.37;98.46;62241.09;5065474;28;20380;-79
2021/12/20 05:37:36;;;;;;;2.53;2.33;;;;;;;2.38;96.42;62239.09;5059594;28;20355;-77
2021/12/20 05:40:03;;;;;;;2.17;2.08;;;;;;;2.44;94.31;62248.28;5056084;28;20198;-78
2021/12/20 05:42:30;;;;;;;2.83;2.63;;;;;;;2.49;94.91;62255.41;5045312;28;20206;-78
2021/12/20 05:44:58;;;;;;;2.38;2.28;;;;;;;2.49;95.17;62247.88;5063888;28;20366;-77
2021/12/20 05:47:25;;;;;;;2.75;2.38;;;;;;;2.44;95.23;62245.25;5060580;28;20267;-78
2021/12/20 05:49:52;;;;;;;2.40;2.28;;;;;;;2.36;97.05;62243.06;5061313;28;20220;-78
2021/12/20 05:52:20;;;;;;;3.03;2.78;;;;;;;2.41;97.56;62244.69;5065288;28;20246;-79
2021/12/20 05:54:47;;;;;;;2.78;2.58;;;;;;;2.30;99.04;62233.88;5063313;28;20198;-79
2021/12/20 05:57:13;;;;;;;2.97;2.78;;;;;;;2.30;98.99;62236.41;5066670;28;20213;-77
2021/12/20 05:59:40;;;;;;;2.20;2.05;;;;;;;2.33;97.63;62240.00;5062070;28;20557;-77
2021/12/20 06:02:08;;;;;;;7.20;2.47;;;;;;;2.35;97.04;62241.53;5062154;28;20219;-79
2021/12/20 06:04:35;;;;;;;2.08;1.98;;;;;;;2.31;96.31;62232.41;5059352;28;20241;-79
2021/12/20 06:07:02;;;;;;;1.92;1.77;;;;;;;2.36;95.48;62245.09;5054434;28;20212;-78
2021/12/20 06:09:29;;;;;;;2.65;2.28;;;;;;;2.37;95.21;62243.59;5049892;28;20225;-79
2021/12/20 06:11:59;;;;;;;2.30;2.20;;;;;;;2.41;92.87;62249.69;5053246;28;20206;-77
2021/12/20 06:14:27;;;;;;;1.77;1.67;;;;;;;2.46;92.97;62250.34;5049402;28;20222;-78
2021/12/20 06:16:55;;;;;;;2.22;2.03;;;;;;;2.52;92.05;62261.00;5065873;28;20209;-78
2021/12/20 06:19:24;;;;;;;2.05;1.95;;;;;;;2.55;91.98;62262.09;5061914;28;20289;-78
2021/12/20 06:21:51;;;;;;;1.52;1.42;;;;;;;2.56;90.29;62260.59;5055139;28;20542;-79
2021/12/20 06:24:19;;;;;;;2.25;1.80;;;;;;;2.63;88.15;62269.78;5063563;28;20240;-79
2021/12/20 06:26:45;;;;;;;1.80;1.70;;;;;;;2.67;86.86;62273.91;5049701;28;20206;-77
2021/12/20 06:29:18;;;;;;;1.92;1.83;;;;;;;2.72;87.38;62279.03;5053471;28;20410;-80
2021/12/20 06:31:46;;;;;;;1.40;1.30;;;;;;;2.74;87.59;62281.09;5059636;28;20494;-78
2021/12/20 06:34:13;;;;;;;1.80;1.70;;;;;;;2.78;88.30;62287.72;5059961;28;20266;-78
2021/12/20 06:36:41;;;;;;;1.77;1.67;;;;;;;2.70;88.23;62279.50;5064545;28;20213;-79
2021/12/20 06:39:08;;;;;;;2.67;2.33;;;;;;;2.75;87.13;62282.63;5065160;28;20529;-80
2021/12/20 06:41:35;;;;;;;1.98;1.88;;;;;;;2.69;84.47;62276.47;5059218;28;20206;-78
2021/12/20 06:44:04;;;;;;;1.38;1.27;;;;;;;2.86;84.26;62293.44;5054477;28;20248;-77
2021/12/20 06:46:33;;;;;;;2.33;2.17;;;;;;;2.93;82.71;62298.63;5061346;28;20276;-79
2021/12/20 06:49:00;;;;;;;1.63;1.55;;;;;;;3.01;82.78;62308.84;5061163;28;20225;-78
2021/12/20 06:51:27;;;;;;;1.80;1.70;;;;;;;3.02;81.66;62312.88;5063436;28;20264;-79
2021/12/20 06:53:55;;;;;;;2.40;2.30;;;;;;;3.03;80.22;62308.91;5053851;28;20225;-79
2021/12/20 06:56:22;;;;;;;1.83;1.35;;;;;;;3.09;80.08;62320.09;5054150;28;20259;-79
2021/12/20 06:58:53;;;;;;;1.63;1.52;;;;;;;3.08;79.33;62316.56;5062150;28;20228;-79
2021/12/20 07:01:20;;;;;;;1.45;1.35;;;;;;;3.24;79.39;62338.03;5062638;28;20532;-79
2021/12/20 07:03:48;;;;;;;1.35;1.35;;;;;;;3.13;81.22;62321.16;5059096;28;20253;-79
2021/12/20 07:06:14;;;;;;;2.97;1.48;;;;;;;3.15;83.19;62323.75;5057799;28;20403;-79
2021/12/20 07:08:41;;;;;;;1.65;1.55;;;;;;;3.02;83.60;62309.88;5061457;28;20347;-78
2021/12/20 07:11:10;;;;;;;1.63;1.52;;;;;;;2.97;84.46;62307.75;5055245;28;20260;-78
2021/12/20 07:13:37;;;;;;;1.48;1.48;;;;;;;3.04;83.06;62311.91;5057869;28;20229;-78
2021/12/20 07:16:05;;;;;;;1.58;1.48;;;;;;;3.13;82.88;62326.72;5051363;28;20198;-77
2021/12/20 07:18:32;;;;;;;1.30;1.30;;;;;;;3.11;83.71;62314.06;5062009;28;20423;-79
2021/12/20 07:20:59;;;;;;;1.60;1.60;;;;;;;3.01;83.77;62308.84;5055078;28;20202;-80
2021/12/20 07:23:28;;;;;;;1.35;1.35;;;;;;;2.95;85.52;62300.16;5061542;28;20541;-78
2021/12/20 07:25:55;;;;;;;1.88;1.77;;;;;;;2.98;86.53;62298.72;5057240;28;20252;-78
2021/12/20 07:28:23;;;;;;;2.22;2.13;;;;;;;3.00;85.92;62310.34;5062021;28;20275;-78
2021/12/20 07:30:50;;;;;;;1.92;1.83;;;;;;;3.01;86.08;62314.38;5044378;28;20388;-79
2021/12/20 07:33:17;;;;;;;1.95;1.85;;;;;;;3.03;85.19;62313.94;5057443;28;20264;-77
2021/12/20 07:35:45;;;;;;;2.05;1.77;;;;;;;3.10;83.47;62318.09;5063681;28;20510;-77
2021/12/20 07:38:14;;;;;;;2.00;1.90;;;;;;;3.16;83.17;62324.75;5063840;28;20295;-78
2021/12/20 07:40:44;;;;;;;1.35;1.25;;;;;;;3.17;83.22;62325.81;5055841;28;20197;-78
2021/12/20 07:43:11;;;;;;;1.42;1.42;;;;;;;3.16;83.29;62322.25;5054746;28;20225;-79
2021/12/20 07:45:40;;;;;;;1.58;1.50;;;;;;;3.09;83.00;62317.56;5061816;28;20202;-77
2021/12/20 07:48:06;;;;;;;1.48;1.42;;;;;;;3.12;82.69;62325.19;5063608;28;20428;-77
2021/12/20 07:50:34;;;;;;;1.50;1.50;;;;;;;3.03;84.00;62308.91;5059483;28;20312;-79
2021/12/20 07:53:01;;;;;;;1.92;1.80;;;;;;;3.07;83.95;62313.00;5058157;28;20222;-78
2021/12/20 07:55:28;;;;;;;1.90;1.80;;;;;;;3.07;83.88;62309.97;5063666;28;20201;-77
2021/12/20 07:57:55;;;;;;;1.40;1.30;;;;;;;3.00;82.09;62312.84;5063366;28;20260;-78
2021/12/20 08:00:23;;;;;;;1.30;1.27;;;;;;;3.08;82.14;62313.53;5063633;28;20905;-79
2021/12/20 08:02:51;;;;;;;1.33;1.05;;;;;;;3.03;82.46;62310.91;5060010;28;20331;-78
2021/12/20 08:05:19;;;;;;;1.67;1.58;;;;;;;3.00;82.56;62305.31;5060878;28;20233;-78
2021/12/20 08:07:50;;;;;;;1.30;1.20;;;;;;;3.04;81.50;62306.88;5052473;28;20215;-79
2021/12/20 08:10:18;;;;;;;1.10;1.10;;;;;;;3.24;80.85;62333.00;5062528;28;20217;-79
2021/12/20 08:12:45;;;;;;;1.30;0.82;;;;;;;3.28;79.12;62339.63;5063835;28;20217;-78
2021/12/20 08:15:12;;;;;;;1.35;1.27;;;;;;;3.29;77.36;62335.63;5052279;28;20237;-78
2021/12/20 08:17:39;;;;;;;0.80;0.80;;;;;;;3.29;77.04;62338.16;5066001;28;20233;-77
2021/12/20 08:22:41;;;;;;;1.10;1.10;;;;;;;3.36;76.31;62347.84;5037085;28;20206;-77
2021/12/20 08:25:09;;;;;;;1.70;1.60;;;;;;;3.36;76.78;62349.84;5042855;28;20404;-75
2021/12/20 08:27:36;;;;;;;1.17;1.17;;;;;;;3.41;76.52;62349.97;5042299;28;20225;-77
2021/12/20 08:30:04;;;;;;;1.05;1.05;;;;;;;3.42;76.18;62348.97;5034615;28;20248;-76
2021/12/20 08:32:31;;;;;;;1.00;1.00;;;;;;;3.47;75.42;62353.59;5055047;28;20438;-76
2021/12/20 08:34:58;;;;;;;1.20;1.20;;;;;;;3.38;74.99;62347.38;5043354;28;20198;-75
2021/12/20 08:37:25;;;;;;;1.38;1.20;;;;;;;3.32;74.34;62343.75;5046274;28;20292;-79
2021/12/20 08:39:54;;;;;;;0.80;0.80;;;;;;;3.50;74.21;62356.69;5047234;28;20202;-79
2021/12/20 08:42:21;;;;;;;1.45;1.35;;;;;;;3.55;74.02;62362.34;5049311;28;20522;-80
2021/12/20 08:44:48;;;;;;;1.02;1.02;;;;;;;3.69;72.94;62381.28;5037807;28;20233;-80
2021/12/20 08:47:15;;;;;;;1.30;1.20;;;;;;;3.65;74.14;62372.13;5039721;28;20214;-79
2021/12/20 08:49:42;;;;;;;1.30;1.23;;;;;;;3.79;72.53;62388.53;5046698;28;20214;-78
2021/12/20 08:52:10;;;;;;;1.02;1.02;;;;;;;3.90;70.15;62397.81;5046709;28;20226;-79
2021/12/20 08:54:37;;;;;;;1.15;1.15;;;;;;;3.97;69.43;62407.53;5046375;28;20256;-79
2021/12/20 08:57:07;;;;;;;1.35;1.35;;;;;;;3.83;71.71;62392.63;5042587;28;20226;-76
2021/12/20 08:59:34;;;;;;;2.05;1.15;;;;;;;4.01;72.42;62413.66;5044738;28;20218;-77
2021/12/20 09:02:03;;;;;;;1.10;1.10;;;;;;;4.07;71.89;62419.84;5041549;28;20280;-76
2021/12/20 09:04:29;;;;;;;1.42;1.42;;;;;;;4.00;68.21;62410.66;5035955;28;20227;-77
2021/12/20 09:06:56;;;;;;;1.30;1.30;;;;;;;4.03;69.81;62413.72;5040959;28;21500;-77
2021/12/20 09:09:23;;;;;;;1.35;1.25;;;;;;;4.03;69.97;62418.75;5042854;28;20202;-76
2021/12/20 09:11:50;;;;;;;1.20;1.20;;;;;;;4.04;69.42;62417.25;5041371;28;20226;-76
2021/12/20 09:14:18;;;;;;;1.40;1.30;;;;;;;4.13;69.40;62423.50;5034997;28;20418;-77
2021/12/20 09:16:45;;;;;;;1.10;1.10;;;;;;;4.21;69.19;62436.78;5042068;28;20592;-77
2021/12/20 09:19:12;;;;;;;1.00;1.00;;;;;;;4.29;68.64;62437.97;5052537;28;20250;-75
2021/12/20 09:21:38;;;;;;;0.70;0.70;;;;;;;4.32;67.83;62440.53;5037045;28;20230;-75
2021/12/20 09:24:09;;;;;;;0.68;0.68;;;;;;;4.18;67.37;62429.16;5041068;28;20236;-76
2021/12/20 09:26:35;;;;;;;2.53;2.30;;;;;;;4.17;67.92;62428.13;5038569;28;20385;-75
2021/12/20 09:29:02;;;;;;;0.88;0.88;;;;;;;4.17;67.55;62430.13;5044209;28;20206;-76
2021/12/20 09:31:30;;;;;;;1.02;1.02;;;;;;;4.28;67.97;62438.94;5036532;28;20292;-75
2021/12/20 09:33:58;;;;;;;1.30;1.30;;;;;;;4.57;68.19;62471.81;5043870;28;20552;-76
2021/12/20 09:36:29;;;;;;;1.67;1.58;;;;;;;4.63;66.33;62474.94;5049468;28;20306;-76
2021/12/20 09:38:56;;;;;;;2.55;1.30;;;;;;;4.52;68.90;62461.63;5042965;28;20202;-76
2021/12/20 09:41:59;;;;;;;1.30;1.20;;;;;;;4.66;67.89;62483.06;5045469;28;20435;-76
2021/12/20 09:44:18;;;;;;;1.45;1.45;;;;;;;4.55;67.94;62464.72;5044305;28;20234;-76
2021/12/20 09:46:48;;;;;;;1.85;1.45;;;;;;;4.51;69.25;62467.63;5044360;28;20217;-77
2021/12/20 09:49:14;;;;;;;1.30;1.30;;;;;;;4.72;67.91;62486.75;5031737;28;20573;-76
2021/12/20 09:51:42;;;;;;;1.48;1.38;;;;;;;4.61;68.10;62473.41;5040350;28;20225;-75
2021/12/20 09:54:08;;;;;;;1.23;1.20;;;;;;;4.57;68.90;62469.28;5044950;28;20199;-76
2021/12/20 09:56:38;;;;;;;1.08;1.08;;;;;;;4.63;69.39;62474.94;5046833;28;20214;-76
2021/12/20 09:59:09;;;;;;;1.52;1.42;;;;;;;4.74;70.51;62489.31;5043328;28;20211;-76
2021/12/20 10:01:36;;;;;;;1.30;1.30;;;;;;;4.90;69.30;62502.75;5044436;28;20230;-76
2021/12/20 10:04:06;;;;;;;1.63;1.55;;;;;;;4.59;71.32;62470.84;5044255;28;20230;-75
2021/12/20 10:06:33;;;;;;;1.50;1.50;;;;;;;4.68;70.54;62478.09;5044208;28;20417;-76
2021/12/20 10:09:10;;;;;;;1.88;1.55;;;;;;;4.56;70.10;62468.25;5044571;28;20256;-76
2021/12/20 10:11:37;;;;;;;2.20;1.33;;;;;;;4.55;69.72;62471.75;5044637;28;20407;-76
2021/12/20 10:14:06;;;;;;;1.20;1.20;;;;;;;4.55;69.21;62466.72;5044069;28;20202;-77
2021/12/20 10:16:34;;;;;;;1.17;1.17;;;;;;;4.59;68.89;62473.38;5044518;28;20394;-76
2021/12/20 10:19:01;;;;;;;1.63;1.52;;;;;;;4.62;69.88;62474.44;5044277;28;20245;-76
2021/12/20 10:21:37;;;;;;;1.38;1.25;;;;;;;4.44;72.32;62457.91;5044240;28;20230;-75
2021/12/20 10:24:04;;;;;;;2.00;1.90;;;;;;;4.45;71.47;62456.44;5040022;28;20228;-76
2021/12/20 10:26:39;;;;;;;2.28;1.77;;;;;;;4.04;74.41;62414.25;5038709;28;20217;-77
2021/12/20 10:29:18;;;;;;;1.58;1.48;;;;;;;4.00;74.64;62418.19;5044812;28;20197;-76
2021/12/20 10:31:45;;;;;;;1.50;1.50;;;;;;;3.85;76.67;62395.19;5039177;28;20218;-76
2021/12/20 10:34:13;;;;;;;1.63;1.52;;;;;;;3.59;79.15;62365.44;5043353;28;20328;-77
2021/12/20 10:36:52;;;;;;;2.15;1.92;;;;;;;3.57;81.45;62368.41;5044082;28;20230;-78
2021/12/20 10:39:33;;;;;;;2.30;2.13;;;;;;;3.55;82.00;62362.34;5032481;28;20225;-77
2021/12/20 10:42:15;;;;;;;1.48;1.38;;;;;;;3.50;80.79;62359.22;5043868;28;20233;-76
2021/12/20 10:44:41;;;;;;;1.10;0.98;;;;;;;3.61;80.89;62370.53;5034672;28;20217;-76
2021/12/20 10:47:08;;;;;;;3.40;1.67;;;;;;;3.64;79.88;62373.63;5037900;28;20234;-76
2021/12/20 10:49:35;;;;;;;1.75;1.65;;;;;;;3.80;78.95;62394.56;5043346;28;20202;-77
2021/12/20 10:52:05;;;;;;;1.75;1.52;;;;;;;3.79;78.17;62391.56;5047511;28;20234;-76
2021/12/20 10:54:42;;;;;;;1.33;1.27;;;;;;;3.83;78.09;62392.63;5041580;28;20201;-74
2021/12/20 10:57:09;;;;;;;0.60;0.60;;;;;;;3.99;78.16;62409.09;5042059;28;20292;-75
2021/12/20 10:59:38;;;;;;;0.90;0.90;;;;;;;4.03;78.45;62410.69;5039640;28;20370;-76
2021/12/20 11:05:00;;;;;;;0.90;0.90;;;;;;;4.01;78.45;62411.66;5011063;28;20275;-76
2021/12/20 11:10:13;;;;;;;0.98;0.98;;;;;;;3.70;79.30;62381.78;5032139;28;20401;-76
2021/12/20 11:12:40;;;;;;;0.70;0.70;;;;;;;3.81;78.61;62388.59;5027432;28;20229;-76
2021/12/20 11:15:09;;;;;;;0.93;0.93;;;;;;;3.90;78.73;62402.34;5023414;28;20405;-76
2021/12/20 11:17:37;;;;;;;1.13;1.13;;;;;;;3.87;78.52;62397.25;5036899;28;20202;-75
2021/12/20 11:20:05;;;;;;;1.13;1.13;;;;;;;3.92;80.25;62399.38;5038535;28;20202;-76
2021/12/20 11:22:34;;;;;;;1.08;1.08;;;;;;;3.76;81.41;62388.47;5043044;28;20213;-76
2021/12/20 11:25:03;;;;;;;1.63;1.52;;;;;;;3.90;82.12;62402.34;5036487;28;20444;-77
2021/12/20 11:27:33;;;;;;;1.40;1.40;;;;;;;4.13;81.04;62426.53;5042682;28;20247;-76
2021/12/20 11:30:01;;;;;;;0.98;0.98;;;;;;;3.93;83.34;62397.88;5042802;28;20206;-76
2021/12/20 11:32:29;;;;;;;0.80;0.80;;;;;;;3.66;84.20;62375.16;5037542;28;20232;-76
2021/12/20 11:34:56;;;;;;;1.95;1.08;;;;;;;3.64;85.77;62375.63;5042951;28;20209;-77
2021/12/20 11:37:27;;;;;;;1.00;1.00;;;;;;;3.66;84.22;62373.13;5040867;28;20283;-75
2021/12/20 11:39:57;;;;;;;0.75;0.75;;;;;;;3.68;83.90;62377.72;5042815;28;20197;-76
2021/12/20 11:42:24;;;;;;;1.33;1.20;;;;;;;3.73;83.28;62382.34;5042887;28;20229;-76
2021/12/20 11:44:55;;;;;;;1.52;1.23;;;;;;;3.83;82.66;62395.66;5040452;28;20234;-77
2021/12/20 11:47:28;;;;;;;1.90;1.42;;;;;;;3.87;82.52;62394.22;5041310;28;20584;-76
2021/12/20 11:49:57;;;;;;;0.90;0.90;;;;;;;3.83;81.73;62390.63;5045942;28;20217;-76
2021/12/20 11:52:24;;;;;;;1.00;1.00;;;;;;;3.90;78.71;62397.31;5044338;28;20230;-76
2021/12/20 11:54:52;;;;;;;1.00;1.00;;;;;;;3.73;80.20;62382.34;5046501;28;20274;-76
2021/12/20 11:57:40;;;;;;;0.85;0.85;;;;;;;3.44;77.89;62353.56;5046550;28;20268;-76
2021/12/20 12:00:23;;;;;;;1.10;1.00;;;;;;;3.47;80.30;62353.59;5046324;28;20506;-77
2021/12/20 12:02:53;;;;;;;1.55;1.45;;;;;;;3.57;80.66;62361.38;5038310;28;20252;-77
2021/12/20 12:05:30;;;;;;;0.90;0.90;;;;;;;3.52;79.04;62359.25;5046480;28;20243;-75